Skip Navigation Links
NOAA logo - Click to go to the NOAA homepage
NOAA's National Weather Service
Alaska Aviation Weather Unit
  NWS logo - Click to go to the NWS homepage
Left Navbar Graphic     22 AKDT = 06 GMT

   
NOAA is celebrating 200 years of science, service, and stewardship. Visit the NOAA 200th celebration Web site to learn more.
USA.gov is the U.S. Government's official Web portal to all Federal, state and local government Web resources and services.
Facebook
NWS on Facebook

Important Change Regarding the AAWU Web Presence

 

Over the last several months, the AAWU has been working to navigate its webpages to a nationally supported server. Security, as well as other needs, have necessitated the change.  In the process, we have made an effort to enhance the functionality of our website, as well as some of our products. As of June 20, 2017, aawu.arh.noaa.gov will be discontinued. The new AAWU web address is weather.gov/aawu. It is now live and will run in-parallel with the old site until it is discontinued. Please send any feedback or questions regarding the new webpages to nws.ar.aawu.webauthors@noaa.gov.  Thank you for your patience during this time of transition.
AAWU Home :: Display TAF Add Bookmark
TAF PAVD 280540Z 2806/2906 VRB04KT P6SM -RA SCT040 OVC060
     FM280900 00000KT 6SM -RA BR OVC025 AMD LTD TO CLD VIS AND
      WIND=
PAVD 280016Z 26009KT 10SM SCT025 BKN055 OVC070 08/01 A3023=

METAR PAVD 280016Z 26009KT 10SM SCT025 BKN055 OVC070 08/01 A3023 RMK AO1
     2347Z WEA: VCSH W RAE37 TWR WND 21007KT=

PAVD 280036Z 26007KT 10SM SCT025 BKN055 OVC070 07/01 A3023=

METAR PAVD 280036Z 26007KT 10SM SCT025 BKN055 OVC070 07/01 A3023 RMK
 AO1
 2347Z WEA: VCSH W RAE37 TWR WND 21007KT=

METAR PAVD 280056Z 28006KT 10SM FEW028 BKN055 OVC070 07/01 A3023=

PAVD 280116Z 26007KT 10SM FEW028 BKN055 OVC070 08/01 A3023=

METAR PAVD 280116Z 26007KT 10SM FEW028 BKN055 OVC070 08/01 A3023 RMK
 AO1
 0047Z WEA: VCSH SW W TWR WND 22008KT=

METAR PAVD 280136Z 26009KT 10SM FEW028 BKN055 OVC070 08/01 A3022=

METAR PAVD 280136Z 26009KT 10SM FEW028 BKN055 OVC070 08/01 A3022 RMK AO1
     0047Z WEA: VCSH SW W TWR WND 22008KT=

METAR PAVD 280156Z 25007KT 10SM FEW027 BKN060 OVC070 08/01 A3022=

METAR PAVD 280216Z 26009KT 10SM FEW027 BKN060 OVC070 08/01 A3022=

METAR PAVD 280216Z 26009KT 10SM FEW027 BKN060 OVC070 08/01 A3022 RMK AO1
     0147Z WEA: VCSH SW W TWR WND 22007KT=

METAR PAVD 280236Z 25007KT 10SM FEW027 BKN060 OVC070 07/01 A3022=

METAR PAVD 280236Z 25007KT 10SM FEW027 BKN060 OVC070 07/01 A3022 RMK AO1
     0147Z WEA: VCSH SW W TWR WND 22007KT=

METAR PAVD 280256Z 25008KT 10SM FEW030 SCT040 BKN075 07/01 A3022=

PAVD 280316Z 25009KT 10SM FEW030 SCT040 BKN075 07/02 A3021=

METAR PAVD 280316Z 25009KT 10SM FEW030 SCT040 BKN075 07/02 A3021 RMK AO1
     0247Z WEA: VCSH SW W TWR WND 24008KT=

PAVD 280336Z 25011KT 10SM FEW030 SCT040 BKN075 07/01 A3021=

METAR PAVD 280336Z 25011KT 10SM FEW030 SCT040 BKN075 07/01 A3021 RMK
 AO1
 0247Z WEA: VCSH SW W TWR WND 24008KT=

METAR PAVD 280356Z 26010KT 10SM FEW030 SCT040 OVC060 07/02 A3021=

METAR PAVD 280416Z 27007KT 10SM FEW030 SCT040 OVC060 07/02 A3020=

METAR PAVD 280416Z 27007KT 10SM FEW030 SCT040 OVC060 07/02 A3020 RMK AO1
     0347Z WEA: VCSH SW W TWR WND 22008KT=

PAVD 280436Z 29007KT 10SM FEW030 SCT040 OVC060 07/02 A3020=

METAR PAVD 280436Z 29007KT 10SM FEW030 SCT040 OVC060 07/02 A3020 RMK AO1
     0347Z WEA: VCSH SW W TWR WND 22008KT=

METAR PAVD 280456Z 29006KT 10SM SCT025 BKN040 OVC055 07/02 A3020=

PAVD 280516Z 27004KT 10SM SCT025 BKN040 OVC055 07/01 A3020=

METAR PAVD 280516Z 27004KT 10SM SCT025 BKN040 OVC055 07/01 A3020 RMK
 AO1
 0447Z WEA: -RA RAB37 PCPN VRY LGT TWR WND 26007KT=

METAR PAVD 280536Z 28005KT 10SM SCT025 BKN040 OVC055 07/01 A3020=

METAR PAVD 280536Z 28005KT 10SM SCT025 BKN040 OVC055 07/01 A3020 RMK AO1
     0447Z WEA: -RA RAB37 PCPN VRY LGT TWR WND 26007KT=

METAR PAVD 280556Z 27004KT 10SM FEW027 BKN043 OVC065 07/02 A3020=

METAR PAVD 280616Z 28003KT 10SM FEW029 SCT048 OVC070 06/02 A3020=

METAR PAVD 280616Z 28003KT 10SM FEW029 SCT048 OVC070 06/02 A3020 RMK
 AO1
=


NOAA's National Weather Service
Alaska Aviation Weather Unit
6930 Sand Lake Road
Anchorage, AK 99502-1845
Disclaimer
Credits
Glossary
Privacy Policy
About Us
Career Opportunities
Contact AAWU Internet Services Site last modified: April, 17th 2012